createdAt,value
2022-09-15T00:01:12.016Z,98150.00
2022-09-15T00:03:39.900Z,98129.00
2022-09-15T00:06:07.456Z,98140.00
2022-09-15T00:08:34.588Z,98145.00
2022-09-15T00:11:25.626Z,98132.00
2022-09-15T00:13:53.914Z,98151.00
2022-09-15T00:16:24.127Z,98152.00
2022-09-15T00:18:51.388Z,98131.00
2022-09-15T00:21:23.827Z,98135.00
2022-09-15T00:23:51.283Z,98141.00
2022-09-15T00:26:25.756Z,98149.00
2022-09-15T00:28:53.358Z,98141.00
2022-09-15T00:31:22.465Z,98143.00
2022-09-15T00:33:53.331Z,98143.00
2022-09-15T00:36:22.149Z,98139.00
2022-09-15T00:38:49.652Z,98144.00
2022-09-15T00:41:20.022Z,98143.00
2022-09-15T00:43:57.223Z,98139.00
2022-09-15T00:46:34.761Z,98147.00
2022-09-15T00:49:20.654Z,98146.00
2022-09-15T00:52:09.925Z,98137.00
2022-09-15T00:54:58.790Z,98150.00
2022-09-15T00:57:31.091Z,98135.00
2022-09-15T01:00:02.608Z,98146.00
2022-09-15T01:02:33.723Z,98151.00
2022-09-15T01:05:04.775Z,98152.00
2022-09-15T01:07:56.164Z,98142.00
2022-09-15T01:10:27.140Z,98152.00
2022-09-15T01:13:10.962Z,98146.00
2022-09-15T01:16:34.671Z,98140.00
2022-09-15T01:19:47.469Z,98131.00
2022-09-15T01:22:36.150Z,98126.00
2022-09-15T01:25:14.563Z,98107.00
2022-09-15T01:28:17.346Z,98125.00
2022-09-15T01:31:03.537Z,98131.00
2022-09-15T01:34:06.345Z,98135.00
2022-09-15T01:36:38.944Z,98128.00
2022-09-15T01:39:20.179Z,98132.00
2022-09-15T01:42:02.123Z,98118.00
2022-09-15T01:44:37.709Z,98123.00
2022-09-15T01:47:10.626Z,98123.00
2022-09-15T01:49:55.155Z,98116.00
2022-09-15T01:52:24.466Z,98120.00
2022-09-15T01:55:00.276Z,98112.00
2022-09-15T01:57:28.143Z,98108.00
2022-09-15T01:59:56.435Z,98109.00
2022-09-15T02:02:42.903Z,98116.00
2022-09-15T02:05:42.547Z,98118.00
2022-09-15T02:08:25.440Z,98112.00
2022-09-15T02:11:13.849Z,98116.00
2022-09-15T02:14:20.778Z,98119.00
2022-09-15T02:16:53.550Z,98111.00
2022-09-15T02:19:41.650Z,98105.00
2022-09-15T02:22:27.865Z,98088.00
2022-09-15T02:25:05.791Z,98097.00
2022-09-15T02:27:44.263Z,98107.00
2022-09-15T02:30:15.139Z,98105.00
2022-09-15T02:32:56.722Z,98117.00
2022-09-15T02:35:27.067Z,98101.00
2022-09-15T02:37:56.216Z,98120.00
2022-09-15T02:40:23.489Z,98112.00
2022-09-15T02:42:56.894Z,98099.00
2022-09-15T02:45:25.525Z,98098.00
2022-09-15T02:47:52.633Z,98104.00
2022-09-15T02:50:20.437Z,98096.00
2022-09-15T02:52:47.355Z,98087.00
2022-09-15T02:55:14.173Z,98098.00
2022-09-15T02:57:40.954Z,98096.00
2022-09-15T03:00:16.785Z,98096.00
2022-09-15T03:02:47.309Z,98108.00
2022-09-15T03:05:16.127Z,98092.00
2022-09-15T03:07:43.418Z,98102.00
2022-09-15T03:10:12.626Z,98108.00
2022-09-15T03:12:40.864Z,98113.00
2022-09-15T03:15:10.659Z,98103.00
2022-09-15T03:17:41.456Z,98120.00
2022-09-15T03:20:11.366Z,98119.00
2022-09-15T03:22:38.437Z,98117.00
2022-09-15T03:25:06.588Z,98120.00
2022-09-15T03:27:35.439Z,98124.00
2022-09-15T03:30:02.787Z,98120.00
2022-09-15T03:32:29.669Z,98133.00
2022-09-15T03:34:58.584Z,98132.00
2022-09-15T03:37:26.536Z,98124.00
2022-09-15T03:39:53.453Z,98136.00
2022-09-15T03:42:20.777Z,98125.00
2022-09-15T03:44:47.565Z,98125.00
2022-09-15T03:47:14.443Z,98125.00
2022-09-15T03:49:41.246Z,98112.00
2022-09-15T03:52:08.239Z,98113.00
2022-09-15T03:54:35.493Z,98106.00
2022-09-15T03:57:03.468Z,98106.00
2022-09-15T03:59:30.261Z,98123.00
2022-09-15T04:01:57.148Z,98124.00
2022-09-15T04:04:24.009Z,98119.00
2022-09-15T04:06:50.835Z,98124.00
2022-09-15T04:09:20.265Z,98130.00
2022-09-15T04:11:47.812Z,98124.00
2022-09-15T04:14:14.708Z,98124.00
2022-09-15T04:16:41.610Z,98131.00
2022-09-15T04:19:08.534Z,98129.00
2022-09-15T04:21:35.359Z,98116.00
2022-09-15T04:24:04.667Z,98121.00
2022-09-15T04:26:35.422Z,98121.00
2022-09-15T04:29:05.287Z,98117.00
2022-09-15T04:31:33.840Z,98123.00
2022-09-15T04:34:00.800Z,98110.00
2022-09-15T04:36:29.455Z,98106.00
2022-09-15T04:38:57.292Z,98108.00
2022-09-15T04:41:26.348Z,98102.00
2022-09-15T04:43:54.183Z,98106.00
2022-09-15T04:46:21.899Z,98110.00
2022-09-15T04:48:49.320Z,98110.00
2022-09-15T04:51:21.379Z,98109.00
2022-09-15T04:53:49.338Z,98103.00
2022-09-15T04:56:21.381Z,98106.00
2022-09-15T04:59:03.199Z,98103.00
2022-09-15T05:01:35.087Z,98109.00
2022-09-15T05:04:04.035Z,98119.00
2022-09-15T05:06:31.146Z,98104.00
2022-09-15T05:08:58.556Z,98119.00
2022-09-15T05:11:27.164Z,98108.00
2022-09-15T05:13:54.834Z,98123.00
2022-09-15T05:16:24.159Z,98111.00
2022-09-15T05:18:54.106Z,98125.00
2022-09-15T05:21:23.902Z,98121.00
2022-09-15T05:23:52.041Z,98128.00
2022-09-15T05:26:30.140Z,98127.00
2022-09-15T05:28:57.476Z,98112.00
2022-09-15T05:31:32.007Z,98132.00
2022-09-15T05:34:03.034Z,98134.00
2022-09-15T05:36:30.574Z,98126.00
2022-09-15T05:38:58.068Z,98113.00
2022-09-15T05:41:26.902Z,98120.00
2022-09-15T05:43:56.987Z,98123.00
2022-09-15T05:46:29.081Z,98135.00
2022-09-15T05:48:58.140Z,98132.00
2022-09-15T05:51:25.168Z,98139.00
2022-09-15T05:53:52.341Z,98150.00
2022-09-15T05:56:20.152Z,98147.00
2022-09-15T05:58:48.913Z,98149.00
2022-09-15T06:01:20.723Z,98152.00
2022-09-15T06:03:48.667Z,98153.00
2022-09-15T06:06:16.520Z,98154.00
2022-09-15T06:08:55.323Z,98156.00
2022-09-15T06:11:30.759Z,98161.00
2022-09-15T06:14:03.147Z,98164.00
2022-09-15T06:16:34.931Z,98167.00
2022-09-15T06:19:02.146Z,98156.00
2022-09-15T06:21:32.225Z,98168.00
2022-09-15T06:24:03.486Z,98151.00
2022-09-15T06:26:30.404Z,98145.00
2022-09-15T06:29:00.910Z,98147.00
2022-09-15T06:31:31.479Z,98162.00
2022-09-15T06:33:59.614Z,98168.00
2022-09-15T06:36:29.662Z,98170.00
2022-09-15T06:38:57.243Z,98177.00
2022-09-15T06:41:24.032Z,98178.00
2022-09-15T06:43:50.926Z,98188.00
2022-09-15T06:46:25.152Z,98178.00
2022-09-15T06:48:53.592Z,98199.00
2022-09-15T06:51:24.610Z,98195.00
2022-09-15T06:53:53.423Z,98207.00
2022-09-15T06:56:23.467Z,98208.00
2022-09-15T06:58:50.561Z,98194.00
2022-09-15T07:01:29.872Z,98195.00
2022-09-15T07:04:00.873Z,98203.00
2022-09-15T07:06:30.155Z,98205.00
2022-09-15T07:08:58.524Z,98200.00
2022-09-15T07:11:26.442Z,98204.00
2022-09-15T07:13:53.390Z,98208.00
2022-09-15T07:16:21.672Z,98210.00
2022-09-15T07:18:49.171Z,98207.00
2022-09-15T07:21:20.097Z,98207.00
2022-09-15T07:23:48.860Z,98207.00
2022-09-15T07:26:24.326Z,98209.00
2022-09-15T07:28:55.820Z,98205.00
2022-09-15T07:31:25.665Z,98204.00
2022-09-15T07:33:53.334Z,98206.00
2022-09-15T07:36:20.869Z,98207.00
2022-09-15T07:38:49.967Z,98200.00
2022-09-15T07:41:18.580Z,98203.00
2022-09-15T07:43:50.961Z,98215.00
2022-09-15T07:46:20.412Z,98213.00
2022-09-15T07:48:49.903Z,98209.00
2022-09-15T07:51:18.005Z,98202.00
2022-09-15T07:53:47.200Z,98205.00
2022-09-15T07:56:14.598Z,98209.00
2022-09-15T07:58:41.403Z,98203.00
2022-09-15T08:01:14.772Z,98208.00
2022-09-15T08:03:44.238Z,98210.00
2022-09-15T08:06:12.445Z,98216.00
2022-09-15T08:08:40.611Z,98208.00
2022-09-15T08:11:18.850Z,98211.00
2022-09-15T08:13:51.109Z,98212.00
2022-09-15T08:16:24.376Z,98220.00
2022-09-15T08:18:54.078Z,98218.00
2022-09-15T08:21:22.450Z,98217.00
2022-09-15T08:23:59.764Z,98214.00
2022-09-15T08:26:28.989Z,98215.00
2022-09-15T08:28:56.101Z,98223.00
2022-09-15T08:31:24.356Z,98232.00
2022-09-15T08:33:53.902Z,98244.00
2022-09-15T08:36:21.657Z,98249.00
2022-09-15T08:38:48.849Z,98243.00
2022-09-15T08:41:31.207Z,98241.00
2022-09-15T08:44:37.759Z,98252.00
2022-09-15T08:47:29.602Z,98259.00
2022-09-15T08:50:20.559Z,98268.00
2022-09-15T08:53:12.813Z,98249.00
2022-09-15T08:55:49.412Z,98252.00
2022-09-15T08:58:24.599Z,98256.00
2022-09-15T09:01:18.305Z,98259.00
2022-09-15T09:04:28.399Z,98263.00
2022-09-15T09:07:20.199Z,98258.00
2022-09-15T09:10:09.055Z,98250.00
2022-09-15T09:12:44.689Z,98261.00
2022-09-15T09:15:49.647Z,98266.00
2022-09-15T09:19:00.092Z,98257.00
2022-09-15T09:21:37.644Z,98256.00
2022-09-15T09:24:42.095Z,98274.00
2022-09-15T09:27:20.081Z,98245.00
2022-09-15T09:29:51.938Z,98247.00
2022-09-15T09:32:38.603Z,98255.00
2022-09-15T09:35:18.707Z,98259.00
2022-09-15T09:37:45.685Z,98260.00
2022-09-15T09:40:14.996Z,98247.00
2022-09-15T09:42:43.889Z,98245.00
2022-09-15T09:45:19.586Z,98238.00
2022-09-15T09:47:46.475Z,98231.00
2022-09-15T09:50:45.284Z,98242.00
2022-09-15T09:53:18.230Z,98247.00
2022-09-15T09:55:45.920Z,98236.00
2022-09-15T09:58:19.182Z,98236.00
2022-09-15T10:00:47.124Z,98226.00
2022-09-15T10:03:29.401Z,98218.00
2022-09-15T10:06:14.147Z,98220.00
2022-09-15T10:09:08.878Z,98221.00
2022-09-15T10:12:01.042Z,98209.00
2022-09-15T10:14:41.835Z,98206.00
2022-09-15T10:17:22.595Z,98210.00
2022-09-15T10:19:58.026Z,98205.00
2022-09-15T10:22:38.194Z,98209.00
2022-09-15T10:25:39.474Z,98204.00
2022-09-15T10:28:17.736Z,98187.00
2022-09-15T10:31:10.869Z,98203.00
2022-09-15T10:33:44.824Z,98200.00
2022-09-15T10:36:32.123Z,98192.00
2022-09-15T10:39:32.251Z,98198.00
2022-09-15T10:42:17.622Z,98216.00
2022-09-15T10:45:23.426Z,98265.00
2022-09-15T10:48:30.231Z,98270.00
2022-09-15T10:51:40.342Z,98269.00
2022-09-15T10:54:41.191Z,98274.00
2022-09-15T11:00:20.994Z,98285.00
2022-09-15T11:03:24.374Z,98302.00
2022-09-15T11:06:05.933Z,98287.00
2022-09-15T11:08:50.593Z,98312.00
2022-09-15T11:11:42.021Z,98320.00
2022-09-15T11:14:43.102Z,98328.00
2022-09-15T11:17:35.062Z,98322.00
2022-09-15T11:20:35.429Z,98324.00
2022-09-15T11:23:32.776Z,98329.00
2022-09-15T11:26:35.469Z,98342.00
2022-09-15T11:29:37.482Z,98338.00
2022-09-15T11:32:14.934Z,98343.00
2022-09-15T11:34:56.887Z,98339.00
2022-09-15T11:37:50.567Z,98346.00
2022-09-15T11:40:22.786Z,98353.00
2022-09-15T11:43:00.098Z,98358.00
2022-09-15T11:45:35.315Z,98354.00
2022-09-15T11:48:33.666Z,98364.00
2022-09-15T11:51:03.253Z,98380.00
2022-09-15T11:53:55.743Z,98375.00
2022-09-15T11:56:42.198Z,98378.00
2022-09-15T11:59:36.409Z,98389.00
2022-09-15T12:02:28.281Z,98388.00
2022-09-15T12:05:10.273Z,98392.00
2022-09-15T12:08:10.112Z,98390.00
2022-09-15T12:10:56.759Z,98394.00
2022-09-15T12:13:26.161Z,98391.00
2022-09-15T12:15:53.955Z,98388.00
2022-09-15T12:19:06.946Z,98403.00
2022-09-15T12:22:01.913Z,98390.00
2022-09-15T12:24:45.793Z,98399.00
2022-09-15T12:27:18.944Z,98394.00
2022-09-15T12:30:00.510Z,98409.00
2022-09-15T12:32:29.999Z,98387.00
2022-09-15T12:35:17.822Z,98405.00
2022-09-15T12:37:54.442Z,98404.00
2022-09-15T12:40:42.393Z,98409.00
2022-09-15T12:43:15.932Z,98416.00
2022-09-15T12:45:55.386Z,98409.00
2022-09-15T12:48:33.993Z,98409.00
2022-09-15T12:51:10.791Z,98410.00
2022-09-15T12:53:52.715Z,98426.00
2022-09-15T12:56:31.087Z,98421.00
2022-09-15T12:59:07.658Z,98429.00
2022-09-15T13:01:50.977Z,98422.00
2022-09-15T13:04:43.528Z,98430.00
2022-09-15T13:07:16.404Z,98429.00
2022-09-15T13:09:57.866Z,98430.00
2022-09-15T13:12:33.648Z,98433.00
2022-09-15T13:15:07.028Z,98439.00
2022-09-15T13:17:34.879Z,98430.00
2022-09-15T13:20:15.362Z,98435.00
2022-09-15T13:22:51.521Z,98436.00
2022-09-15T13:25:31.175Z,98435.00
2022-09-15T13:28:03.578Z,98438.00
2022-09-15T13:30:47.411Z,98428.00
2022-09-15T13:40:42.390Z,98448.00
2022-09-15T13:43:41.450Z,98439.00
2022-09-15T13:46:49.025Z,98430.00
2022-09-15T13:49:39.271Z,98433.00
2022-09-15T13:52:20.702Z,98429.00
2022-09-15T13:55:17.760Z,98421.00
2022-09-15T14:00:49.075Z,98424.00
2022-09-15T14:03:25.680Z,98406.00
2022-09-15T14:05:54.268Z,98414.00
2022-09-15T14:08:33.254Z,98422.00
2022-09-15T14:11:08.235Z,98416.00
2022-09-15T14:13:41.015Z,98403.00
2022-09-15T14:16:37.845Z,98404.00
2022-09-15T14:19:31.116Z,98403.00
2022-09-15T14:21:58.817Z,98404.00
2022-09-15T14:24:32.406Z,98394.00
2022-09-15T14:27:07.267Z,98386.00
2022-09-15T14:29:40.265Z,98391.00
2022-09-15T14:32:11.443Z,98396.00
2022-09-15T14:34:38.957Z,98401.00
2022-09-15T14:37:08.062Z,98397.00
2022-09-15T14:39:37.541Z,98396.00
2022-09-15T14:42:32.424Z,98398.00
2022-09-15T14:48:07.458Z,98385.00
2022-09-15T14:50:35.520Z,98400.00
2022-09-15T14:53:05.974Z,98391.00
2022-09-15T14:56:04.371Z,98399.00
2022-09-15T14:58:44.681Z,98385.00
2022-09-15T15:01:25.540Z,98397.00
2022-09-15T15:04:24.582Z,98399.00
2022-09-15T15:07:22.619Z,98397.00
2022-09-15T15:10:04.323Z,98402.00
2022-09-15T15:12:37.176Z,98393.00
2022-09-15T15:15:06.852Z,98392.00
2022-09-15T15:17:39.894Z,98394.00
2022-09-15T15:20:06.659Z,98396.00
2022-09-15T15:22:34.128Z,98383.00
2022-09-15T15:25:00.957Z,98385.00
2022-09-15T15:27:33.914Z,98388.00
2022-09-15T15:30:29.470Z,98394.00
2022-09-15T15:33:19.701Z,98383.00
2022-09-15T15:35:48.479Z,98400.00
2022-09-15T15:38:19.463Z,98388.00
2022-09-15T15:40:46.953Z,98385.00
2022-09-15T15:43:13.639Z,98394.00
2022-09-15T15:46:02.179Z,98398.00
2022-09-15T15:48:37.861Z,98399.00
2022-09-15T15:51:07.359Z,98405.00
2022-09-15T15:53:34.425Z,98400.00
2022-09-15T15:56:01.818Z,98404.00
2022-09-15T15:58:28.591Z,98402.00
2022-09-15T16:00:57.031Z,98403.00
2022-09-15T16:03:25.585Z,98406.00
2022-09-15T16:05:59.673Z,98405.00
2022-09-15T16:08:38.685Z,98414.00
2022-09-15T16:11:09.693Z,98419.00
2022-09-15T16:13:36.529Z,98416.00
2022-09-15T16:16:23.961Z,98413.00
2022-09-15T16:18:51.204Z,98409.00
2022-09-15T16:21:38.274Z,98414.00
2022-09-15T16:24:09.750Z,98416.00
2022-09-15T16:26:36.579Z,98410.00
2022-09-15T16:29:03.424Z,98425.00
2022-09-15T16:31:31.650Z,98431.00
2022-09-15T16:33:58.617Z,98426.00
2022-09-15T16:36:26.584Z,98440.00
2022-09-15T16:38:53.648Z,98432.00
2022-09-15T16:41:25.727Z,98441.00
2022-09-15T16:44:02.535Z,98435.00
2022-09-15T16:46:29.757Z,98425.00
2022-09-15T16:48:57.228Z,98430.00
2022-09-15T16:51:29.911Z,98435.00
2022-09-15T16:53:58.831Z,98430.00
2022-09-15T16:56:26.966Z,98456.00
2022-09-15T16:58:59.546Z,98448.00
2022-09-15T17:01:27.641Z,98449.00
2022-09-15T17:03:54.953Z,98450.00
2022-09-15T17:06:22.165Z,98445.00
2022-09-15T17:08:49.463Z,98441.00
2022-09-15T17:11:19.920Z,98447.00
2022-09-15T17:13:47.481Z,98450.00
2022-09-15T17:16:19.400Z,98452.00
2022-09-15T17:18:46.881Z,98448.00
2022-09-15T17:21:16.426Z,98444.00
2022-09-15T17:23:49.375Z,98445.00
2022-09-15T17:26:24.000Z,98448.00
2022-09-15T17:28:53.426Z,98440.00
2022-09-15T17:31:23.492Z,98446.00
2022-09-15T17:33:51.590Z,98439.00
2022-09-15T17:36:18.914Z,98445.00
2022-09-15T17:38:45.987Z,98440.00
2022-09-15T17:41:21.473Z,98453.00
2022-09-15T17:43:48.348Z,98444.00
2022-09-15T17:46:16.646Z,98450.00
2022-09-15T17:48:43.530Z,98455.00
2022-09-15T17:51:17.415Z,98440.00
2022-09-15T17:53:46.703Z,98448.00
2022-09-15T17:56:13.879Z,98444.00
2022-09-15T17:58:41.385Z,98444.00
2022-09-15T18:01:12.201Z,98441.00
2022-09-15T18:03:39.338Z,98447.00
2022-09-15T18:06:08.371Z,98434.00
2022-09-15T18:08:36.336Z,98432.00
2022-09-15T18:11:06.034Z,98442.00
2022-09-15T18:13:34.023Z,98448.00
2022-09-15T18:16:12.990Z,98456.00
2022-09-15T18:18:40.861Z,98464.00
2022-09-15T18:21:16.695Z,98464.00
2022-09-15T18:23:45.044Z,98469.00
2022-09-15T18:26:11.843Z,98462.00
2022-09-15T18:28:38.648Z,98455.00
2022-09-15T18:31:05.822Z,98477.00
2022-09-15T18:33:32.626Z,98472.00
2022-09-15T18:35:59.412Z,98479.00
2022-09-15T18:38:27.794Z,98472.00
2022-09-15T18:40:56.974Z,98477.00
2022-09-15T18:43:27.155Z,98495.00
2022-09-15T18:45:59.943Z,98497.00
2022-09-15T18:48:27.407Z,98489.00
2022-09-15T18:50:54.923Z,98486.00
2022-09-15T18:53:21.939Z,98503.00
2022-09-15T18:55:48.810Z,98501.00
2022-09-15T18:58:15.721Z,98508.00
2022-09-15T19:00:45.633Z,98501.00
2022-09-15T19:03:14.001Z,98497.00
2022-09-15T19:05:40.811Z,98512.00
2022-09-15T19:08:09.115Z,98512.00
2022-09-15T19:10:35.959Z,98508.00
2022-09-15T19:13:02.766Z,98505.00
2022-09-15T19:15:31.256Z,98512.00
2022-09-15T19:17:58.092Z,98502.00
2022-09-15T19:20:25.135Z,98509.00
2022-09-15T19:22:51.961Z,98517.00
2022-09-15T19:25:19.090Z,98518.00
2022-09-15T19:27:47.820Z,98510.00
2022-09-15T19:30:15.100Z,98521.00
2022-09-15T19:32:43.178Z,98521.00
2022-09-15T19:35:11.304Z,98526.00
2022-09-15T19:37:40.770Z,98515.00
2022-09-15T19:40:12.432Z,98526.00
2022-09-15T19:42:41.567Z,98536.00
2022-09-15T19:45:10.390Z,98525.00
2022-09-15T19:47:38.651Z,98518.00
2022-09-15T19:50:08.570Z,98523.00
2022-09-15T19:52:35.811Z,98538.00
2022-09-15T19:55:03.095Z,98541.00
2022-09-15T19:57:29.858Z,98540.00
2022-09-15T19:59:56.654Z,98530.00
2022-09-15T20:02:23.471Z,98545.00
2022-09-15T20:04:50.339Z,98540.00
2022-09-15T20:07:17.161Z,98520.00
2022-09-15T20:09:44.191Z,98534.00
2022-09-15T20:12:11.173Z,98543.00
2022-09-15T20:14:38.091Z,98525.00
2022-09-15T20:17:05.422Z,98541.00
2022-09-15T20:19:32.542Z,98525.00
2022-09-15T20:21:59.408Z,98539.00
2022-09-15T20:24:26.310Z,98536.00
2022-09-15T20:26:53.750Z,98544.00
2022-09-15T20:29:21.043Z,98543.00
2022-09-15T20:31:48.425Z,98534.00
2022-09-15T20:34:15.713Z,98553.00
2022-09-15T20:36:44.443Z,98542.00
2022-09-15T20:39:15.367Z,98548.00
2022-09-15T20:41:45.960Z,98546.00
2022-09-15T20:44:13.816Z,98552.00
2022-09-15T20:46:40.864Z,98548.00
2022-09-15T20:49:08.917Z,98559.00
2022-09-15T20:51:35.777Z,98550.00
2022-09-15T20:54:04.259Z,98555.00
2022-09-15T20:56:34.998Z,98563.00
2022-09-15T20:59:04.063Z,98562.00
2022-09-15T21:01:37.444Z,98561.00
2022-09-15T21:04:06.836Z,98558.00
2022-09-15T21:06:34.529Z,98559.00
2022-09-15T21:09:01.703Z,98562.00
2022-09-15T21:11:29.599Z,98562.00
2022-09-15T21:13:57.709Z,98557.00
2022-09-15T21:16:27.875Z,98561.00
2022-09-15T21:18:57.478Z,98561.00
2022-09-15T21:21:31.273Z,98564.00
2022-09-15T21:24:03.744Z,98562.00
2022-09-15T21:27:00.724Z,98566.00
2022-09-15T21:29:28.881Z,98567.00
2022-09-15T21:31:56.383Z,98555.00
2022-09-15T21:34:23.967Z,98557.00
2022-09-15T21:36:51.772Z,98552.00
2022-09-15T21:39:18.624Z,98565.00
2022-09-15T21:41:45.459Z,98550.00
2022-09-15T21:44:12.227Z,98562.00
2022-09-15T21:46:39.769Z,98542.00
2022-09-15T21:49:06.577Z,98561.00
2022-09-15T21:51:33.437Z,98564.00
2022-09-15T21:54:00.708Z,98555.00
2022-09-15T21:56:29.645Z,98562.00
2022-09-15T21:58:56.990Z,98575.00
2022-09-15T22:01:30.652Z,98579.00
2022-09-15T22:04:00.855Z,98557.00
2022-09-15T22:06:34.439Z,98573.00
2022-09-15T22:09:12.988Z,98576.00
2022-09-15T22:11:40.001Z,98561.00
2022-09-15T22:14:10.476Z,98561.00
2022-09-15T22:16:40.551Z,98571.00
2022-09-15T22:19:09.985Z,98561.00
2022-09-15T22:21:41.492Z,98572.00
2022-09-15T22:24:12.670Z,98572.00
2022-09-15T22:26:41.105Z,98576.00
2022-09-15T22:29:07.963Z,98560.00
2022-09-15T22:31:35.927Z,98565.00
2022-09-15T22:34:03.487Z,98564.00
2022-09-15T22:36:31.786Z,98575.00
2022-09-15T22:39:06.565Z,98563.00
2022-09-15T22:41:38.656Z,98580.00
2022-09-15T22:44:07.591Z,98578.00
2022-09-15T22:46:34.854Z,98580.00
2022-09-15T22:49:01.972Z,98576.00
2022-09-15T22:51:29.074Z,98570.00
2022-09-15T22:53:57.061Z,98570.00
2022-09-15T22:56:26.028Z,98561.00
2022-09-15T22:58:55.571Z,98570.00
2022-09-15T23:01:27.692Z,98567.00
2022-09-15T23:03:58.788Z,98565.00
2022-09-15T23:06:31.077Z,98572.00
2022-09-15T23:09:01.984Z,98570.00
2022-09-15T23:11:32.838Z,98559.00
2022-09-15T23:14:00.443Z,98557.00
2022-09-15T23:16:28.430Z,98559.00
2022-09-15T23:18:55.427Z,98555.00
2022-09-15T23:21:22.762Z,98560.00
2022-09-15T23:23:50.124Z,98555.00
2022-09-15T23:26:21.991Z,98560.00
2022-09-15T23:28:51.390Z,98570.00
2022-09-15T23:31:19.503Z,98561.00
2022-09-15T23:33:47.580Z,98560.00
2022-09-15T23:36:21.821Z,98555.00
2022-09-15T23:38:49.569Z,98566.00
2022-09-15T23:41:17.611Z,98569.00
2022-09-15T23:43:45.181Z,98558.00
2022-09-15T23:46:12.714Z,98563.00
2022-09-15T23:48:39.543Z,98565.00
2022-09-15T23:51:06.377Z,98583.00
2022-09-15T23:53:34.175Z,98573.00
2022-09-15T23:56:01.499Z,98581.00
2022-09-15T23:58:28.377Z,98568.00
